Home   Weather   Laramie   Past weeks
Flag for USA

Past Weather in Laramie, Wyoming, USA — November 2023

Currently: 46 °F. Clear. (Weather station: Cheyenne Airport, USA). See more current weather

November 2023 Weather in Laramie — Graph

°F

High & Low Weather Summary for November 2023

 TemperatureHumidityPressure
High69 °F (Nov 5, 10:53 am)100% (Nov 17, 2:53 am)30.55 "Hg (Nov 17, 2:53 am)
Low8 °F (Nov 25, 5:53 am)8% (Nov 12, 12:53 pm)29.62 "Hg (Nov 7, 1:53 pm)
Average38 °F48%30.07 "Hg
* Reported Nov 1 12:53 am — Nov 30 9:28 pm, Laramie. Weather by CustomWeather, © 2024

Note: Actual official high and low records may vary slightly from our data, if they occured in-between our weather recording intervals... More about our weather records

Laramie Weather History for November 1, 2023

Scroll right to see more
 ConditionsComfort  
Time TempWeatherWind HumidityBarometerVisibility
12:53 am
Wed, Nov 1
39 °FClear.15 mph39%30.13 "Hg10 mi
1:53 am40 °FClear.20 mph36%30.11 "Hg10 mi
2:53 am41 °FClear.18 mph33%30.10 "Hg10 mi
3:53 am41 °FClear.20 mph33%30.08 "Hg10 mi
4:53 am41 °FClear.16 mph33%30.07 "Hg10 mi
5:53 am41 °FClear.17 mph35%30.09 "Hg10 mi
6:53 am40 °FClear.12 mph38%30.12 "Hg10 mi
7:53 am44 °FSunny.17 mph29%30.13 "Hg10 mi
8:53 am45 °FSunny.21 mph30%30.14 "Hg10 mi
9:53 am46 °FSunny.20 mph30%30.16 "Hg10 mi
10:53 am49 °FSunny.20 mph26%30.13 "Hg10 mi
11:53 am52 °FSunny.13 mph25%30.13 "Hg10 mi
12:53 pm53 °FSunny.13 mph22%30.06 "Hg10 mi
1:53 pm56 °FSunny.10 mph22%30.01 "Hg10 mi
2:53 pm58 °FSunny.10 mph16%29.97 "Hg10 mi
3:53 pm59 °FSunny.14 mph15%29.96 "Hg10 mi
4:53 pm56 °FSunny.15 mph15%29.98 "Hg10 mi
6:53 pm49 °FClear.6 mph22%30.05 "Hg10 mi
7:53 pm45 °FClear.7 mph31%30.05 "Hg10 mi
8:53 pm47 °FPassing clouds.No wind25%30.05 "Hg10 mi
9:53 pm42 °FOvercast.5 mph36%30.08 "Hg10 mi
10:53 pm39 °FClear.9 mph43%30.08 "Hg10 mi
11:53 pm37 °FClear.9 mph44%30.06 "Hg10 mi
Weather by CustomWeather, © 2024

See weather overview